SBOSBO ALC / LEAL
Speedbird OnlineSpeedbird Online ALC / LEAL

Alicante International Airport
00:37 12.5°C

Location Alicante, Spain
Latitude: 38.28219985961914
Longitude: -0.5581560134887695
Local Time 00:37 on 28 Feb 2024
UTC +1 hours (Europe/Madrid)
Currency £1 equals EUR 1.17
METAR LEAL 272300Z 27009KT CAVOK 12/M00 Q1015 NOSIG
TAF TAF LEAL 271700Z 2718/2818 32005KT 9999 FEW020 TX19/2814Z TN08/2807Z TEMPO 2718/2720 VRB05KT PROB40 TEMPO 2802/2806 32015G25KT BECMG 2811/2813 13008KT
Weather As Of 28 Feb 2024 00:37
Description Clear sky
Wind 17 km/h from West (270°)
Cloud Cover 0%
Precipitation Rain: none, Snow: none
Sunrise 07:36
Sunset 18:53
NOTAM 26 active NOTAM
Rotations During the last 90 days there were
81 flights from LGW
82 flights to LGW
Lounges Costa Blanca Lounge, Main Terminal
Web Airport Website | Wikipedia
Codes IATA: ALC
ICAO: LEAL
Altitude 43 Meter / 142 Feet
Distance 1,471 KM / 914 Miles
from London.
Runways
RunwayLength (m)Surface
103000Asphalt
283000Asphalt
Radio
TypeDescriptionFrequency
APPAPP118.8
ATISATIS113.8
GNDGND121.7
TWRTWR118.15
Live ATC



Support Speedbird Online

© 2017-2024 Speedbird Online